Escanaba, MI

8:47 PM EDT on September 30, 2014 (GMT -0400)
Delta County | Change Station
CLOSE
Current Station
Airport
Location: Escanaba,
Elevation: 607 ft
Nearby Weather Stations

Elev 607 ft 45.72 °N, 87.09 °W | Updated 4 days ago

Overcast
Overcast
47 °F
Feels Like 47 °F
N
6
Wind Variable Wind from NE
Gusts 9 mph

Today
High -- | Low -- °F
--% Chance of Precip.
Yesterday
High -- | Low -- °F
Precip. -- in
7:45 AM 7:30 PM
Waxing Crescent, 41% visible
Pressure 30.25 in
Visibility 10.0 miles
Clouds Scattered Clouds 7500 ft
Dew Point 44 °F
Humidity 85%
Rainfall 0.00 in
Snow Depth Not available.
UV 1 out of 12
Pollen 2.00 out of 12
Ozone Good
PM2.5 Good
Flu Activity Not available.
METAR KESC 252135Z AUTO 16005KT 10SM SCT075 19/12 A3025 RMK AO1

More Conditions Fewer Conditions

Pressure 30.25 in
Visibility 10.0 miles
Clouds Scattered Clouds 7500 ft
Dew Point 44 °F
Humidity 85%
Rainfall 0.00 in
Snow Depth Not available.
UV 1 out of 12
Pollen 2.00 out of 12
Ozone Good
PM2.5 Good
Flu Activity Not available.
METAR KESC 252135Z AUTO 16005KT 10SM SCT075 19/12 A3025 RMK AO1

More Conditions Fewer Conditions

10-Day Weather Forecast

Almanac

Astronomy

Sep. 30, 2014 Rise Set
Actual Time 7:45 AM EDT 7:30 PM EDT
Civil Twilight 7:15 AM EDT 8:00 PM EDT
Nautical Twilight 6:41 AM EDT 8:34 PM EDT
Astronomical Twilight 6:06 AM EDT 9:09 PM EDT
Moon 2:07 PM EDT (9/30) 11:46 PM EDT (9/30)
Length of Visible Light 12h 44m
Length of Day
11h 45m
Tomorrow will be 3m 11s shorter.
Waxing Crescent, 41% of the Moon is Illuminated
Today
Waxing Crescent
Oct 1
First Quarter
Oct 8
Full
Oct 15
Last Quarter
Oct 23
New

Today's Extremes

State Highs State Lows

Community

WunderPhotos

Upload Photos

1,757,801 photos uploaded!

Nearby

Air Quality

  Air Quality AQ Index Pollutant
Yesterday Good
OZONE
Yesterday Good
PM2.5
Current Good
OZONE
Current Good
PM2.5
Tuesday Good
OZONE
Tuesday Good
PM2.5
Wednesday Good
OZONE
Wednesday Good
PM2.5
Thursday Good
OZONE
Thursday Good
PM2.5
Friday Good
OZONE
Friday Good
PM2.5
Saturday Good
OZONE
Saturday Good
PM2.5

Snow Depth

Station Depth Elevation
No new snow has been reported.

Earthquake Activity

City Distance Mag. Time & Date
No recent earthquake activity has been reported nearby.
Minimum magnitude displayed is 2.5.

Coastal Water Temperatures

Place Temperature
Menominee, MI 62.1 °F
Port Inland, MI 61.0 °F

Nearby Weather Stations